Time,TemperatureF,DewpointF,PressureIn,WindDirection,WindDirectionDegrees,WindSpeedMPH,WindSpeedGustMPH,Humidity,HourlyPrecipIn,Conditions,Clouds,dailyrainin,SoftwareType,DateUTC
2013-09-12 00:00:00,71.1,67.3,28.93,SSE,160,2.0,7.0,88,0.00,CLR,,0.00,WeatherDisplay:10.37,2013-09-12 05:00:00,
2013-09-12 00:15:00,70.7,67.3,28.93,SSE,157,1.0,5.0,89,0.00,CLR,,0.00,WeatherDisplay:10.37,2013-09-12 05:15:00,
2013-09-12 00:30:00,70.7,67.6,28.92,South,180,2.0,5.0,90,0.00,CLR,,0.00,WeatherDisplay:10.37,2013-09-12 05:30:00,
2013-09-12 00:45:00,70.3,67.6,28.92,SSE,157,2.0,4.0,91,0.00,CLR,,0.00,WeatherDisplay:10.37,2013-09-12 05:45:00,
2013-09-12 01:00:00,70.2,67.7,28.92,SSE,159,3.0,5.0,92,0.00,CLR,,0.00,WeatherDisplay:10.37,2013-09-12 06:00:00,
2013-09-12 01:15:00,70.0,67.5,28.93,South,180,1.0,5.0,92,0.00,CLR,,0.00,WeatherDisplay:10.37,2013-09-12 06:15:00,
2013-09-12 01:30:00,69.6,67.5,28.93,South,180,0.0,3.0,93,0.00,CLR,,0.00,WeatherDisplay:10.37,2013-09-12 06:30:00,
2013-09-12 01:45:00,69.4,67.3,28.94,South,180,1.0,2.0,93,0.00,CLR,,0.00,WeatherDisplay:10.37,2013-09-12 06:45:00,
2013-09-12 02:00:00,69.4,67.6,28.94,SE,140,1.0,3.0,94,0.00,CLR,,0.00,WeatherDisplay:10.37,2013-09-12 07:00:00,
2013-09-12 02:15:00,69.6,67.5,28.94,South,182,1.0,3.0,93,0.00,CLR,,0.00,WeatherDisplay:10.37,2013-09-12 07:15:00,
2013-09-12 02:30:00,69.3,67.5,28.94,South,175,1.0,2.0,94,0.00,CLR,,0.00,WeatherDisplay:10.37,2013-09-12 07:30:00,
2013-09-12 02:45:00,69.8,68.0,28.93,SSE,161,2.0,4.0,94,0.00,CLR,,0.00,WeatherDisplay:10.37,2013-09-12 07:45:00,
2013-09-12 03:00:00,69.6,67.5,28.94,South,180,1.0,3.0,93,0.00,CLR,,0.00,WeatherDisplay:10.37,2013-09-12 08:00:00,
2013-09-12 03:15:00,69.8,67.7,28.94,SE,124,0.0,2.0,93,0.00,CLR,,0.00,WeatherDisplay:10.37,2013-09-12 08:15:00,
2013-09-12 03:30:00,69.6,67.8,28.94,ESE,113,1.0,4.0,94,0.00,CLR,,0.00,WeatherDisplay:10.37,2013-09-12 08:30:00,
2013-09-12 03:45:00,69.6,67.8,28.94,SE,135,1.0,5.0,94,0.00,CLR,,0.00,WeatherDisplay:10.37,2013-09-12 08:45:00,
2013-09-12 04:00:00,69.8,68.3,28.94,SE,129,3.0,4.0,95,0.00,CLR,,0.00,WeatherDisplay:10.37,2013-09-12 09:00:00,
2013-09-12 04:15:00,69.6,68.1,28.94,South,173,2.0,5.0,95,0.00,CLR,,0.00,WeatherDisplay:10.37,2013-09-12 09:15:00,
2013-09-12 04:30:00,69.8,67.4,28.94,South,180,6.0,8.0,92,0.00,CLR,,0.00,WeatherDisplay:10.37,2013-09-12 09:30:00,
2013-09-12 04:45:00,70.0,66.9,28.94,SSE,155,3.0,8.0,90,0.00,CLR,,0.00,WeatherDisplay:10.37,2013-09-12 09:45:00,
2013-09-12 05:00:00,70.0,67.2,28.94,SSE,149,3.0,7.0,91,0.00,CLR,,0.00,WeatherDisplay:10.37,2013-09-12 10:00:00,
2013-09-12 05:15:00,69.4,67.0,28.95,South,187,5.0,7.0,92,0.00,CLR,,0.00,WeatherDisplay:10.37,2013-09-12 10:15:00,
2013-09-12 05:30:00,69.4,67.0,28.95,SSE,162,2.0,7.0,92,0.00,CLR,,0.00,WeatherDisplay:10.37,2013-09-12 10:30:00,
2013-09-12 05:45:00,69.3,67.1,28.96,SSE,162,2.0,5.0,93,0.00,CLR,,0.00,WeatherDisplay:10.37,2013-09-12 10:45:00,
2013-09-12 06:00:00,68.9,67.4,28.96,SSE,150,3.0,7.0,95,0.00,CLR,,0.00,WeatherDisplay:10.37,2013-09-12 11:00:00,
2013-09-12 06:15:00,68.5,67.4,28.97,SE,139,2.0,6.0,96,0.00,CLR,,0.00,WeatherDisplay:10.37,2013-09-12 11:15:00,
2013-09-12 06:30:00,68.5,67.4,28.97,South,180,3.0,5.0,96,0.00,CLR,,0.00,WeatherDisplay:10.37,2013-09-12 11:30:00,
2013-09-12 06:45:00,68.5,67.4,28.98,SE,135,3.0,5.0,96,0.00,CLR,,0.00,WeatherDisplay:10.37,2013-09-12 11:45:00,
2013-09-12 07:00:00,68.5,67.1,28.98,South,180,3.0,7.0,95,0.00,CLR,,0.00,WeatherDisplay:10.37,2013-09-12 12:00:00,
2013-09-12 07:15:00,68.5,66.1,28.97,SE,145,8.0,11.0,92,0.00,CLR,,0.00,WeatherDisplay:10.37,2013-09-12 12:15:00,
2013-09-12 07:30:00,68.9,65.8,28.97,SSE,153,6.0,11.0,90,0.00,CLR,,0.00,WeatherDisplay:10.37,2013-09-12 12:30:00,
2013-09-12 07:45:00,68.7,66.0,28.96,SSE,160,6.0,11.0,91,0.00,CLR,,0.00,WeatherDisplay:10.37,2013-09-12 12:45:00,
2013-09-12 08:00:00,68.7,65.7,28.96,SSE,162,5.0,9.0,90,0.00,CLR,,0.00,WeatherDisplay:10.37,2013-09-12 13:00:00,
2013-09-12 08:15:00,68.7,65.7,28.97,SSW,199,5.0,11.0,90,0.00,CLR,,0.00,WeatherDisplay:10.37,2013-09-12 13:15:00,
2013-09-12 08:30:00,68.9,65.8,28.96,South,180,6.0,11.0,90,0.00,CLR,,0.00,WeatherDisplay:10.37,2013-09-12 13:30:00,
2013-09-12 08:45:00,70.0,66.6,28.96,SE,137,5.0,11.0,89,0.00,CLR,,0.00,WeatherDisplay:10.37,2013-09-12 13:45:00,
2013-09-12 09:00:00,70.3,66.3,28.97,SSE,148,6.0,8.0,87,0.00,CLR,,0.00,WeatherDisplay:10.37,2013-09-12 14:00:00,
2013-09-12 09:15:00,70.2,66.4,28.97,South,180,6.0,10.0,88,0.00,CLR,,0.00,WeatherDisplay:10.37,2013-09-12 14:15:00,
2013-09-12 21:32:00,60.8,53.9,29.02,NE,45,13.7,13.7,78,0.01,RA,,0.01,WeatherDisplay:10.37,2013-09-13 02:32:00,
2013-09-12 21:37:00,60.6,54.1,29.02,NE,45,3.5,3.5,79,0.01,CLR,,0.01,WeatherDisplay:10.37,2013-09-13 02:37:00,
2013-09-12 21:42:00,60.3,53.4,29.02,NE,45,3.5,3.5,78,0.01,CLR,,0.01,WeatherDisplay:10.37,2013-09-13 02:42:00,
2013-09-12 21:47:00,60.4,53.5,29.02,North,0,3.5,3.5,78,0.01,CLR,,0.01,WeatherDisplay:10.37,2013-09-13 02:47:00,
2013-09-12 21:52:00,60.4,53.5,29.02,NE,45,3.8,3.8,78,0.01,CLR,,0.01,WeatherDisplay:10.37,2013-09-13 02:52:00,
2013-09-12 21:57:00,60.4,53.5,29.03,NE,45,4.6,4.6,78,0.01,CLR,,0.01,WeatherDisplay:10.37,2013-09-13 02:57:00,
2013-09-12 22:02:00,60.4,53.5,29.02,NE,45,4.6,4.6,78,0.01,CLR,,0.01,WeatherDisplay:10.37,2013-09-13 03:02:00,
2013-09-12 22:07:00,60.4,53.2,29.03,NE,45,4.6,4.6,77,0.01,CLR,,0.01,WeatherDisplay:10.37,2013-09-13 03:07:00,
2013-09-12 22:12:00,60.4,53.2,29.03,NE,45,3.5,3.5,77,0.01,CLR,,0.01,WeatherDisplay:10.37,2013-09-13 03:12:00,
2013-09-12 22:17:00,60.1,53.2,29.03,North,0,4.6,4.6,78,0.01,CLR,,0.01,WeatherDisplay:10.37,2013-09-13 03:17:00,
2013-09-12 22:22:00,59.9,53.0,29.02,NE,45,4.6,4.6,78,0.01,CLR,,0.01,WeatherDisplay:10.37,2013-09-13 03:22:00,
2013-09-12 22:27:00,59.7,53.2,29.03,NE,45,4.6,4.6,79,0.00,CLR,,0.01,WeatherDisplay:10.37,2013-09-13 03:27:00,
2013-09-12 22:32:00,59.5,53.0,29.03,NE,45,3.5,3.5,79,0.00,CLR,,0.01,WeatherDisplay:10.37,2013-09-13 03:32:00,
2013-09-12 22:37:00,59.2,52.7,29.03,NE,45,3.5,3.5,79,0.00,CLR,,0.01,WeatherDisplay:10.37,2013-09-13 03:37:00,
2013-09-12 22:42:00,59.0,52.8,29.02,NE,45,3.5,3.5,80,0.00,CLR,,0.01,WeatherDisplay:10.37,2013-09-13 03:42:00,
2013-09-12 22:47:00,58.8,52.7,29.03,North,0,3.5,3.5,80,0.00,CLR,,0.01,WeatherDisplay:10.37,2013-09-13 03:47:00,
2013-09-12 22:52:00,58.6,52.8,29.03,North,0,3.5,3.5,81,0.00,CLR,,0.01,WeatherDisplay:10.37,2013-09-13 03:52:00,
2013-09-12 22:57:00,58.6,52.8,29.03,North,0,3.5,3.5,81,0.00,CLR,,0.01,WeatherDisplay:10.37,2013-09-13 03:57:00,
2013-09-12 23:01:00,58.8,52.7,29.02,NE,45,3.5,3.5,80,0.00,CLR,,0.01,WeatherDisplay:10.37,2013-09-13 04:01:00,
2013-09-12 23:03:00,58.8,52.7,29.03,NE,45,3.5,3.5,80,0.00,CLR,,0.01,WeatherDisplay:10.37,2013-09-13 04:03:00,
2013-09-12 23:08:00,57.7,51.3,29.02,SW,225,3.5,0.0,79,0.00,CLR,,0.01,WeatherDisplay:10.37,2013-09-13 04:08:00,
2013-09-12 23:13:00,56.8,50.7,29.03,SW,225,0.0,0.0,80,0.00,CLR,,0.01,WeatherDisplay:10.37,2013-09-13 04:13:00,
2013-09-12 23:18:00,55.9,50.2,29.03,SW,225,1.2,1.2,81,0.00,CLR,,0.01,WeatherDisplay:10.37,2013-09-13 04:18:00,
2013-09-12 23:23:00,55.2,49.5,29.03,SW,225,1.2,0.0,81,0.00,CLR,,0.01,WeatherDisplay:10.37,2013-09-13 04:23:00,
2013-09-12 23:28:00,54.7,49.6,29.03,SW,225,1.2,0.0,83,0.00,CLR,,0.01,WeatherDisplay:10.37,2013-09-13 04:28:00,
2013-09-12 23:33:00,54.3,49.6,29.03,SW,225,0.0,0.0,84,0.00,CLR,,0.01,WeatherDisplay:10.37,2013-09-13 04:33:00,
2013-09-12 23:38:00,54.1,49.4,29.03,SW,225,1.2,0.0,84,0.00,CLR,,0.01,WeatherDisplay:10.37,2013-09-13 04:38:00,
2013-09-12 23:43:00,53.8,49.4,29.03,SW,225,0.0,0.0,85,0.00,CLR,,0.01,WeatherDisplay:10.37,2013-09-13 04:43:00,
2013-09-12 23:48:00,53.8,50.0,29.04,SW,225,0.0,0.0,87,0.00,CLR,,0.01,WeatherDisplay:10.37,2013-09-13 04:48:00,
2013-09-12 23:53:00,53.6,49.8,29.04,West,270,0.0,0.0,87,0.00,CLR,,0.01,WeatherDisplay:10.37,2013-09-13 04:53:00,
2013-09-12 23:58:00,53.6,49.8,29.04,West,270,0.0,0.0,87,0.00,CLR,,0.01,WeatherDisplay:10.37,2013-09-13 04:58:00,